LGKO

Details ICAO LGKO (KGS)
Name KOS
Region Greece
Timezone Europe/Athens (UTC+2.0)
Plans Departing 184
Arriving 305
Stats Elevation 412 ft / 126 m (AMSL)
Location 36.794403° 27.090764°
Runways 1
Magnetic Variation 4.723° E
Sunrise 2017-12-13 05:17:05 UTC / 2017-12-13 07:17:05 Local
Sunset 2017-12-13 14:57:22 UTC / 2017-12-13 16:57:22 Local
Advertisement - Login to hide

Runways

ID Width Length Bearing (true) Bearing (mag) Surface Threshold Offset Overrun Length
14 148 ft / 45 m 7,923 ft / 2,415 m 148.29° 143.57° Asphalt 0 ft / 0 m 240 ft / 73 m
32 148 ft / 45 m 7,923 ft / 2,415 m 328.30° 323.58° Asphalt 0 ft / 0 m 205 ft / 62 m

Map

Weather


0- 5 10 15 20 25 30 35+ Temperature / ° C

Clouds and Precipitation
Forecast for 2017-12-13 18:00 UTC. Updated 2 hours ago

Ground ~20,000 ft ~40,000 ft Winds

METAR

LGKO 131450Z 30004KT 9999 FEW016 16/13 Q1020

TAF

TAF LGKO 131100Z 1312/1412 33010KT 9999 FEW015 BKN025 BECMG 1322/1324 26010KT

Frequencies

Recorded 126.95 MHz ATIS
Tower 122.10 MHz IPPOKRATIS TWR
Approach 122.10 MHz APP
Tower 121.05 MHz IPPOKRATIS TWR
Approach 119.95 MHz APP
Warning: Do not use this data for real-world aviation or navigation. No guarantee of current accuracy is given.